Time;durP1;ratioP1;P1;durP2;ratioP2;P2;SDS_P1;SDS_P2;PMS_P1;PMS_P2;Temp;Humidity;BMP_temperature;BMP_pressure;BME280_temperature;BME280_humidity;BME280_pressure;Samples;Min_cycle;Max_cycle;Signal;HPM_P1;HPM_P2
2021/08/05 00:01:40;;;;;;;6.07;5.63;;;;;;;;;;4987479;28;24444;-51
2021/08/05 00:04:06;;;;;;;5.55;5.20;;;;;;;;;;4987405;28;24432;-51
2021/08/05 00:06:31;;;;;;;5.35;4.95;;;;;;;;;;4986337;28;24951;-52
2021/08/05 00:08:56;;;;;;;5.53;5.13;;;;;;;;;;4977206;28;24467;-50
2021/08/05 00:11:22;;;;;;;5.38;5.00;;;;;;;;;;4984588;28;24428;-52
2021/08/05 00:13:47;;;;;;;4.40;4.10;;;;;;;;;;4985621;28;24421;-51
2021/08/05 00:16:12;;;;;;;4.30;4.00;;;;;;;;;;4977622;28;24971;-52
2021/08/05 00:18:37;;;;;;;4.30;4.00;;;;;;;;;;4976874;28;24401;-52
2021/08/05 00:21:02;;;;;;;4.30;4.00;;;;;;;;;;4989128;28;24400;-52
2021/08/05 00:23:28;;;;;;;4.10;3.80;;;;;;;;;;4987287;28;24571;-52
2021/08/05 00:25:53;;;;;;;3.90;3.60;;;;;;;;;;4988696;28;24393;-52
2021/08/05 00:28:18;;;;;;;4.20;3.90;;;;;;;;;;4978377;28;25030;-51
2021/08/05 00:30:43;;;;;;;3.90;3.70;;;;;;;;;;4972983;28;24440;-52
2021/08/05 00:33:08;;;;;;;3.30;3.10;;;;;;;;;;4980245;28;25017;-51
2021/08/05 00:35:34;;;;;;;3.50;3.30;;;;;;;;;;4983635;28;24429;-51
2021/08/05 00:37:59;;;;;;;3.53;3.33;;;;;;;;;;4985353;28;24430;-52
2021/08/05 00:40:24;;;;;;;3.80;3.60;;;;;;;;;;4981131;28;24994;-51
2021/08/05 00:42:49;;;;;;;3.53;3.23;;;;;;;;;;4972927;28;24417;-52
2021/08/05 00:45:15;;;;;;;3.75;3.47;;;;;;;;;;4983565;28;24532;-52
2021/08/05 00:47:40;;;;;;;4.30;3.90;;;;;;;;;;4979639;28;24959;-52
2021/08/05 00:50:05;;;;;;;4.50;4.20;;;;;;;;;;4988097;28;24404;-52
2021/08/05 00:52:31;;;;;;;4.73;4.43;;;;;;;;;;4975618;28;24800;-52
2021/08/05 00:54:56;;;;;;;5.60;5.20;;;;;;;;;;4986503;28;24413;-53
2021/08/05 00:57:21;;;;;;;6.00;5.60;;;;;;;;;;4987530;28;24409;-53
2021/08/05 00:59:46;;;;;;;6.00;5.60;;;;;;;;;;4983668;28;24964;-52
2021/08/05 01:02:12;;;;;;;4.80;4.50;;;;;;;;;;4976824;28;24483;-52
2021/08/05 01:04:37;;;;;;;5.53;5.13;;;;;;;;;;4977595;28;25093;-53
2021/08/05 01:07:03;;;;;;;5.30;4.90;;;;;;;;;;4973034;28;25013;-53
2021/08/05 01:09:57;;;;;;;5.20;4.80;;;;;;;;;;4984431;28;25033;-53
2021/08/05 01:12:31;;;;;;;5.80;5.30;;;;;;;;;;4964908;28;24498;-54
2021/08/05 01:15:17;;;;;;;5.60;5.20;;;;;;;;;;4986475;28;24421;-52
2021/08/05 01:17:46;;;;;;;6.20;5.70;;;;;;;;;;4961120;28;24452;-52
2021/08/05 01:20:12;;;;;;;7.10;6.60;;;;;;;;;;4987662;28;24889;-53
2021/08/05 01:22:56;;;;;;;7.30;6.80;;;;;;;;;;4983213;28;24487;-54
2021/08/05 01:25:26;;;;;;;6.80;6.30;;;;;;;;;;4987024;28;24911;-51
2021/08/05 01:27:51;;;;;;;7.50;6.90;;;;;;;;;;4973640;28;24492;-51
2021/08/05 01:30:17;;;;;;;9.10;8.30;;;;;;;;;;4969270;28;24476;-52
2021/08/05 01:32:43;;;;;;;8.60;8.00;;;;;;;;;;4986391;28;25042;-52
2021/08/05 01:35:08;;;;;;;8.90;8.20;;;;;;;;;;4984759;28;24409;-52
2021/08/05 01:37:34;;;;;;;9.50;8.90;;;;;;;;;;4979618;28;24449;-52
2021/08/05 01:39:59;;;;;;;10.10;9.40;;;;;;;;;;4972487;28;24911;-52
2021/08/05 01:42:25;;;;;;;8.80;8.20;;;;;;;;;;4969918;28;24461;-52
2021/08/05 01:44:52;;;;;;;8.70;8.10;;;;;;;;;;4987410;28;24404;-52
2021/08/05 01:47:18;;;;;;;9.32;8.63;;;;;;;;;;4971411;28;24479;-51
2021/08/05 01:49:43;;;;;;;9.30;8.60;;;;;;;;;;4968253;28;24409;-52
2021/08/05 01:52:09;;;;;;;9.23;8.60;;;;;;;;;;4971900;28;24409;-51
2021/08/05 01:54:34;;;;;;;9.35;8.70;;;;;;;;;;4981665;28;24636;-52
2021/08/05 01:56:59;;;;;;;8.85;8.15;;;;;;;;;;4976330;28;24405;-52
2021/08/05 01:59:24;;;;;;;8.87;8.27;;;;;;;;;;4973109;28;24483;-52
2021/08/05 02:01:49;;;;;;;8.40;7.80;;;;;;;;;;4982638;28;24424;-52
2021/08/05 02:04:24;;;;;;;8.83;8.23;;;;;;;;;;4991498;28;24385;-52
2021/08/05 02:06:55;;;;;;;9.18;8.57;;;;;;;;;;4982477;28;25002;-52
2021/08/05 02:09:24;;;;;;;9.85;9.10;;;;;;;;;;4985193;28;24468;-52
2021/08/05 02:11:50;;;;;;;9.18;8.57;;;;;;;;;;4971785;28;24444;-52
2021/08/05 02:14:16;;;;;;;8.98;8.38;;;;;;;;;;4975465;28;24560;-52
2021/08/05 02:16:43;;;;;;;8.65;8.05;;;;;;;;;;4982930;28;24413;-52
2021/08/05 02:19:08;;;;;;;8.90;8.30;;;;;;;;;;4983836;28;24998;-51
2021/08/05 02:21:34;;;;;;;8.40;7.83;;;;;;;;;;4971524;28;24409;-52
2021/08/05 02:23:59;;;;;;;8.80;8.20;;;;;;;;;;4981008;28;24421;-51
2021/08/05 02:26:25;;;;;;;8.40;7.80;;;;;;;;;;4989083;28;24556;-51
2021/08/05 02:28:51;;;;;;;8.25;7.57;;;;;;;;;;4979320;28;24441;-52
2021/08/05 02:31:17;;;;;;;8.00;7.40;;;;;;;;;;4979731;28;24463;-51
2021/08/05 02:33:43;;;;;;;8.60;7.80;;;;;;;;;;4978938;28;24417;-51
2021/08/05 02:36:08;;;;;;;7.30;6.80;;;;;;;;;;4976231;28;24406;-51
2021/08/05 02:38:34;;;;;;;6.90;6.50;;;;;;;;;;4982634;28;24461;-51
2021/08/05 02:40:59;;;;;;;6.70;6.20;;;;;;;;;;4974449;28;24421;-52
2021/08/05 02:43:28;;;;;;;7.40;6.90;;;;;;;;;;4987598;28;24420;-51
2021/08/05 02:45:54;;;;;;;6.70;6.20;;;;;;;;;;4985293;28;24480;-52
2021/08/05 02:48:20;;;;;;;7.40;6.90;;;;;;;;;;4990008;28;24410;-52
2021/08/05 02:50:46;;;;;;;6.90;6.40;;;;;;;;;;4976323;28;24792;-52
2021/08/05 02:53:12;;;;;;;6.80;6.40;;;;;;;;;;4990341;28;24984;-52
2021/08/05 02:55:37;;;;;;;6.40;6.00;;;;;;;;;;4985024;28;24406;-52
2021/08/05 02:58:02;;;;;;;6.90;6.40;;;;;;;;;;4973940;28;24421;-51
2021/08/05 03:00:28;;;;;;;6.80;6.10;;;;;;;;;;4980043;28;24404;-51
2021/08/05 03:02:53;;;;;;;6.28;5.80;;;;;;;;;;4969917;28;24797;-52
2021/08/05 03:05:18;;;;;;;6.13;5.63;;;;;;;;;;4971740;28;24464;-53
2021/08/05 03:07:44;;;;;;;5.97;5.47;;;;;;;;;;4971733;28;24991;-52
2021/08/05 03:10:10;;;;;;;5.88;5.40;;;;;;;;;;4981486;28;24763;-52
2021/08/05 03:12:36;;;;;;;5.60;5.20;;;;;;;;;;4974297;28;24414;-52
2021/08/05 03:15:01;;;;;;;6.30;5.82;;;;;;;;;;4970628;28;24452;-52
2021/08/05 03:17:26;;;;;;;6.20;5.70;;;;;;;;;;4973404;28;24425;-52
2021/08/05 03:19:52;;;;;;;5.60;5.20;;;;;;;;;;4989726;28;24401;-52
2021/08/05 03:22:17;;;;;;;5.90;5.50;;;;;;;;;;4977475;28;24588;-52
2021/08/05 03:24:42;;;;;;;6.30;5.80;;;;;;;;;;4977913;28;24508;-53
2021/08/05 03:27:08;;;;;;;5.40;5.00;;;;;;;;;;4971987;28;24422;-52
2021/08/05 03:29:33;;;;;;;6.60;6.00;;;;;;;;;;4982910;28;24443;-52
2021/08/05 03:31:58;;;;;;;7.15;6.65;;;;;;;;;;4983652;28;25715;-53
2021/08/05 03:34:23;;;;;;;6.43;6.03;;;;;;;;;;4977025;28;24525;-52
2021/08/05 03:36:49;;;;;;;7.40;6.90;;;;;;;;;;4968165;28;24533;-52
2021/08/05 03:39:14;;;;;;;6.87;6.37;;;;;;;;;;4981665;28;24808;-52
2021/08/05 03:41:39;;;;;;;7.68;7.07;;;;;;;;;;4971024;28;24512;-52
2021/08/05 03:44:04;;;;;;;8.20;7.60;;;;;;;;;;4969886;28;24405;-52
2021/08/05 03:46:29;;;;;;;7.50;7.00;;;;;;;;;;4970569;28;24816;-52
2021/08/05 03:48:54;;;;;;;7.47;6.93;;;;;;;;;;4970770;28;24417;-53
2021/08/05 03:51:20;;;;;;;6.80;6.40;;;;;;;;;;4980843;28;24517;-53
2021/08/05 03:53:45;;;;;;;7.50;7.00;;;;;;;;;;4988573;28;24413;-53
2021/08/05 03:56:10;;;;;;;8.30;7.70;;;;;;;;;;4970946;28;24420;-53
2021/08/05 03:58:35;;;;;;;6.50;6.00;;;;;;;;;;4976192;28;24464;-53
2021/08/05 04:01:01;;;;;;;7.82;7.22;;;;;;;;;;4981210;28;24476;-54
2021/08/05 04:03:26;;;;;;;6.90;6.50;;;;;;;;;;4979571;28;24406;-53
2021/08/05 04:05:51;;;;;;;7.50;7.00;;;;;;;;;;4970487;28;24413;-52
2021/08/05 04:08:16;;;;;;;7.20;6.70;;;;;;;;;;4984206;28;24488;-53
2021/08/05 04:10:41;;;;;;;8.30;7.60;;;;;;;;;;4977411;28;24923;-52
2021/08/05 04:13:06;;;;;;;8.20;7.60;;;;;;;;;;4976892;28;24765;-53
2021/08/05 04:15:31;;;;;;;7.10;6.70;;;;;;;;;;4986081;28;24419;-51
2021/08/05 04:17:57;;;;;;;8.85;8.25;;;;;;;;;;4973432;28;24405;-52
2021/08/05 04:20:22;;;;;;;8.10;7.50;;;;;;;;;;4981728;28;24416;-53
2021/08/05 04:22:48;;;;;;;8.67;7.97;;;;;;;;;;4988518;28;24421;-53
2021/08/05 04:25:13;;;;;;;8.17;7.57;;;;;;;;;;4988413;28;24919;-53
2021/08/05 04:27:39;;;;;;;8.30;7.60;;;;;;;;;;4979614;28;24448;-53
2021/08/05 04:30:06;;;;;;;9.30;8.40;;;;;;;;;;4969027;28;24936;-52
2021/08/05 04:32:31;;;;;;;9.55;8.85;;;;;;;;;;4975885;28;24460;-53
2021/08/05 04:34:56;;;;;;;9.00;8.38;;;;;;;;;;4980684;28;24662;-52
2021/08/05 04:37:21;;;;;;;8.82;8.23;;;;;;;;;;4988635;28;24389;-53
2021/08/05 04:39:47;;;;;;;8.40;7.80;;;;;;;;;;4985233;28;24424;-52
2021/08/05 04:42:12;;;;;;;9.10;8.40;;;;;;;;;;4985651;28;24884;-53
2021/08/05 04:44:37;;;;;;;9.93;9.23;;;;;;;;;;4972251;28;24433;-53
2021/08/05 04:47:02;;;;;;;8.95;8.30;;;;;;;;;;4977346;28;24418;-53
2021/08/05 04:49:28;;;;;;;10.57;9.87;;;;;;;;;;4986708;28;24419;-53
2021/08/05 04:51:53;;;;;;;8.97;8.30;;;;;;;;;;4983041;28;24513;-53
2021/08/05 04:54:19;;;;;;;8.90;8.30;;;;;;;;;;4986450;28;24445;-53
2021/08/05 04:56:44;;;;;;;9.85;9.15;;;;;;;;;;4974824;28;24421;-53
2021/08/05 04:59:09;;;;;;;8.40;7.80;;;;;;;;;;4975937;28;24420;-53
2021/08/05 05:01:34;;;;;;;9.07;8.38;;;;;;;;;;4974466;28;24429;-54
2021/08/05 05:04:00;;;;;;;9.30;8.70;;;;;;;;;;4979022;28;24405;-53
2021/08/05 05:06:25;;;;;;;8.52;7.93;;;;;;;;;;4968667;28;24440;-52
2021/08/05 05:08:50;;;;;;;8.40;7.80;;;;;;;;;;4979821;28;24452;-53
2021/08/05 05:11:15;;;;;;;9.23;8.52;;;;;;;;;;4988159;28;24489;-53
2021/08/05 05:13:40;;;;;;;9.07;8.37;;;;;;;;;;4988153;28;24390;-52
2021/08/05 05:16:05;;;;;;;8.75;8.15;;;;;;;;;;4987857;28;24819;-58
2021/08/05 05:18:31;;;;;;;8.73;8.02;;;;;;;;;;4982271;28;24525;-53
2021/08/05 05:20:56;;;;;;;8.40;7.80;;;;;;;;;;4971574;28;24436;-53
2021/08/05 05:23:21;;;;;;;9.03;8.43;;;;;;;;;;4981172;28;24475;-53
2021/08/05 05:25:47;;;;;;;9.85;9.15;;;;;;;;;;4966702;28;24382;-53
2021/08/05 05:28:12;;;;;;;10.87;10.07;;;;;;;;;;4976600;28;24472;-53
2021/08/05 05:30:38;;;;;;;9.23;8.63;;;;;;;;;;4972168;28;24409;-53
2021/08/05 05:33:03;;;;;;;8.27;7.68;;;;;;;;;;4988131;28;24406;-53
2021/08/05 05:35:28;;;;;;;8.37;7.87;;;;;;;;;;4988995;28;24531;-53
2021/08/05 05:37:54;;;;;;;9.30;8.50;;;;;;;;;;4979314;28;24517;-53
2021/08/05 05:40:19;;;;;;;8.40;7.80;;;;;;;;;;4982662;28;24451;-52
2021/08/05 05:42:45;;;;;;;8.30;7.80;;;;;;;;;;4974460;28;24488;-53
2021/08/05 05:45:11;;;;;;;8.95;8.23;;;;;;;;;;4987603;28;24836;-53
2021/08/05 05:47:36;;;;;;;7.90;7.40;;;;;;;;;;4986762;28;24491;-52
2021/08/05 05:50:01;;;;;;;8.67;8.07;;;;;;;;;;4983709;28;24463;-50
2021/08/05 05:52:26;;;;;;;9.07;8.37;;;;;;;;;;4986562;28;24799;-52
2021/08/05 05:54:52;;;;;;;8.20;7.60;;;;;;;;;;4985833;28;24405;-51
2021/08/05 05:57:17;;;;;;;8.30;7.70;;;;;;;;;;4983890;28;24427;-51
2021/08/05 05:59:42;;;;;;;8.30;7.80;;;;;;;;;;4976014;28;24992;-51
2021/08/05 06:02:08;;;;;;;8.00;7.50;;;;;;;;;;4972245;28;24493;-51
2021/08/05 06:04:33;;;;;;;7.55;7.00;;;;;;;;;;4977420;28;24959;-51
2021/08/05 06:06:58;;;;;;;7.97;7.40;;;;;;;;;;4980472;28;24430;-51
2021/08/05 06:09:23;;;;;;;8.03;7.53;;;;;;;;;;4968969;28;25177;-51
2021/08/05 06:12:13;;;;;;;8.50;7.90;;;;;;;;;;4976172;28;24520;-52
2021/08/05 06:14:39;;;;;;;7.25;6.75;;;;;;;;;;4971791;28;24500;-51
2021/08/05 06:17:04;;;;;;;7.10;6.70;;;;;;;;;;4989922;28;24423;-52
2021/08/05 06:19:29;;;;;;;7.15;6.75;;;;;;;;;;4976450;28;24412;-52
2021/08/05 06:21:54;;;;;;;7.18;6.72;;;;;;;;;;4970997;28;24386;-52
2021/08/05 06:24:19;;;;;;;8.48;7.88;;;;;;;;;;4971552;28;24389;-51
2021/08/05 06:26:45;;;;;;;9.40;8.63;;;;;;;;;;4971242;28;24528;-52
2021/08/05 06:29:11;;;;;;;8.20;7.60;;;;;;;;;;4971038;28;24559;-52
2021/08/05 06:31:36;;;;;;;8.50;7.80;;;;;;;;;;4984510;28;24475;-52
2021/08/05 06:34:04;;;;;;;7.72;7.22;;;;;;;;;;4980830;28;24565;-52
2021/08/05 06:36:30;;;;;;;8.40;7.80;;;;;;;;;;4982379;28;24588;-52
2021/08/05 06:38:55;;;;;;;8.47;7.87;;;;;;;;;;4983703;28;25031;-52
2021/08/05 06:41:20;;;;;;;8.80;8.10;;;;;;;;;;4981062;28;24475;-51
2021/08/05 06:43:45;;;;;;;7.83;7.33;;;;;;;;;;4982363;28;24420;-51
2021/08/05 06:46:11;;;;;;;9.30;8.60;;;;;;;;;;4980053;28;24768;-52
2021/08/05 06:48:36;;;;;;;8.67;8.07;;;;;;;;;;4981466;28;24418;-52
2021/08/05 06:51:01;;;;;;;9.90;9.23;;;;;;;;;;4972245;28;24604;-52
2021/08/05 06:53:26;;;;;;;9.25;8.55;;;;;;;;;;4983699;28;24524;-51
2021/08/05 06:55:52;;;;;;;8.90;8.20;;;;;;;;;;4975703;28;24405;-52
2021/08/05 06:58:19;;;;;;;8.10;7.50;;;;;;;;;;4977947;28;24468;-53
2021/08/05 07:00:45;;;;;;;9.60;8.98;;;;;;;;;;4972149;28;24492;-51
2021/08/05 07:03:10;;;;;;;8.90;8.30;;;;;;;;;;4987637;28;25274;-52
2021/08/05 07:05:35;;;;;;;8.52;7.93;;;;;;;;;;4980230;28;24989;-52
2021/08/05 07:08:00;;;;;;;8.30;7.70;;;;;;;;;;4970860;28;24477;-51
2021/08/05 07:10:26;;;;;;;8.90;8.20;;;;;;;;;;4989249;28;24509;-52
2021/08/05 07:12:51;;;;;;;7.90;7.40;;;;;;;;;;4989684;28;24393;-51
2021/08/05 07:15:17;;;;;;;8.73;8.00;;;;;;;;;;4989704;28;24937;-52
2021/08/05 07:17:44;;;;;;;8.80;8.20;;;;;;;;;;4989493;28;24983;-52
2021/08/05 07:20:10;;;;;;;9.82;9.13;;;;;;;;;;4989813;28;24389;-53
2021/08/05 07:22:35;;;;;;;8.95;8.35;;;;;;;;;;4987662;28;24399;-52
2021/08/05 07:25:00;;;;;;;10.40;9.50;;;;;;;;;;4974169;28;24456;-52
2021/08/05 07:27:25;;;;;;;9.70;9.02;;;;;;;;;;4968610;28;24417;-52
2021/08/05 07:29:51;;;;;;;11.07;10.27;;;;;;;;;;4969406;28;24429;-52
2021/08/05 07:32:16;;;;;;;8.35;7.85;;;;;;;;;;4969286;28;24394;-52
2021/08/05 07:34:41;;;;;;;10.68;9.68;;;;;;;;;;4970175;28;24389;-52
2021/08/05 07:37:06;;;;;;;10.57;9.77;;;;;;;;;;4969914;28;24395;-52
2021/08/05 07:39:31;;;;;;;11.35;10.55;;;;;;;;;;4969879;28;24398;-52
2021/08/05 07:41:57;;;;;;;10.65;9.93;;;;;;;;;;4969494;28;24382;-53
2021/08/05 07:44:22;;;;;;;9.10;8.50;;;;;;;;;;4969404;28;24394;-53
2021/08/05 07:46:48;;;;;;;10.05;9.25;;;;;;;;;;4983673;28;24436;-53
2021/08/05 07:49:13;;;;;;;10.18;9.48;;;;;;;;;;4988443;28;24740;-53
2021/08/05 07:51:38;;;;;;;10.97;10.17;;;;;;;;;;4988925;28;24392;-53
2021/08/05 07:54:04;;;;;;;10.20;9.40;;;;;;;;;;4982194;28;24437;-53
2021/08/05 07:56:29;;;;;;;10.47;9.67;;;;;;;;;;4973406;28;24409;-52
2021/08/05 07:58:54;;;;;;;10.82;10.02;;;;;;;;;;4969462;28;24398;-53
2021/08/05 08:01:19;;;;;;;10.77;10.17;;;;;;;;;;4969265;28;24396;-53
2021/08/05 08:03:44;;;;;;;9.40;8.60;;;;;;;;;;4969583;28;24401;-53
2021/08/05 08:06:09;;;;;;;8.30;7.70;;;;;;;;;;4969565;28;24400;-53
2021/08/05 08:08:35;;;;;;;8.20;7.60;;;;;;;;;;4969134;28;24476;-53
2021/08/05 08:11:00;;;;;;;8.70;8.10;;;;;;;;;;4969433;28;24977;-53
2021/08/05 08:13:26;;;;;;;7.97;7.28;;;;;;;;;;4969309;28;24385;-53
2021/08/05 08:15:51;;;;;;;6.60;6.20;;;;;;;;;;4968993;28;24393;-54
2021/08/05 08:18:16;;;;;;;6.40;6.00;;;;;;;;;;4969428;28;24944;-53
2021/08/05 08:20:42;;;;;;;6.80;6.30;;;;;;;;;;4969366;28;24428;-53
2021/08/05 08:23:07;;;;;;;7.60;7.10;;;;;;;;;;4968890;28;24394;-52
2021/08/05 08:25:32;;;;;;;7.07;6.57;;;;;;;;;;4968790;28;24436;-53
2021/08/05 08:27:57;;;;;;;6.15;5.75;;;;;;;;;;4968992;28;24983;-53
2021/08/05 08:30:23;;;;;;;6.97;6.47;;;;;;;;;;4968797;28;24475;-53
2021/08/05 08:32:48;;;;;;;7.50;7.00;;;;;;;;;;4969124;28;24386;-53
2021/08/05 08:35:13;;;;;;;6.80;6.30;;;;;;;;;;4968344;28;24388;-53
2021/08/05 08:37:39;;;;;;;6.20;5.80;;;;;;;;;;4969043;28;24430;-53
2021/08/05 08:40:04;;;;;;;6.00;5.60;;;;;;;;;;4968908;28;24488;-53
2021/08/05 08:42:30;;;;;;;5.55;5.15;;;;;;;;;;4968823;28;24405;-52
2021/08/05 08:44:55;;;;;;;5.70;5.30;;;;;;;;;;4974825;28;24405;-53
2021/08/05 08:47:21;;;;;;;5.28;4.88;;;;;;;;;;4988220;28;24521;-53
2021/08/05 08:49:47;;;;;;;5.80;5.40;;;;;;;;;;4988399;28;24410;-53
2021/08/05 08:52:13;;;;;;;5.40;5.10;;;;;;;;;;4987483;28;24468;-53
2021/08/05 08:54:43;;;;;;;5.90;5.50;;;;;;;;;;4988331;28;24958;-53
2021/08/05 08:57:09;;;;;;;5.90;5.50;;;;;;;;;;4988063;28;24485;-53
2021/08/05 08:59:34;;;;;;;4.63;4.32;;;;;;;;;;4987092;28;24500;-53
2021/08/05 09:01:59;;;;;;;4.77;4.47;;;;;;;;;;4987082;28;24412;-54
2021/08/05 09:04:25;;;;;;;4.80;4.50;;;;;;;;;;4987979;28;25028;-53
2021/08/05 09:06:50;;;;;;;4.50;4.20;;;;;;;;;;4988119;28;24520;-52
2021/08/05 09:09:15;;;;;;;4.80;4.40;;;;;;;;;;4987820;28;24448;-53
2021/08/05 09:11:40;;;;;;;4.90;4.60;;;;;;;;;;4988208;28;24480;-53
2021/08/05 09:14:05;;;;;;;4.97;4.68;;;;;;;;;;4987714;28;24933;-53
2021/08/05 09:16:31;;;;;;;6.70;6.20;;;;;;;;;;4987920;28;24429;-52
2021/08/05 09:19:07;;;;;;;6.80;6.30;;;;;;;;;;4987792;28;24412;-53
2021/08/05 09:21:32;;;;;;;7.80;7.20;;;;;;;;;;4987434;28;24408;-53
2021/08/05 09:23:57;;;;;;;10.27;9.27;;;;;;;;;;4985886;28;24460;-54
2021/08/05 09:26:30;;;;;;;12.00;11.10;;;;;;;;;;4984747;28;24410;-55
2021/08/05 09:28:59;;;;;;;12.80;11.70;;;;;;;;;;4966413;28;24912;-55
2021/08/05 09:31:24;;;;;;;14.18;12.68;;;;;;;;;;4968130;28;24409;-56
2021/08/05 09:33:49;;;;;;;14.65;13.55;;;;;;;;;;4968140;28;24386;-57
2021/08/05 09:36:24;;;;;;;16.17;14.60;;;;;;;;;;4967977;28;24959;-57
2021/08/05 09:38:49;;;;;;;14.38;13.27;;;;;;;;;;4967679;28;24385;-55
2021/08/05 09:41:14;;;;;;;12.75;11.85;;;;;;;;;;4967580;28;24417;-55
2021/08/05 09:43:39;;;;;;;9.80;9.17;;;;;;;;;;4971843;28;24596;-55
2021/08/05 09:46:05;;;;;;;11.87;10.90;;;;;;;;;;4987407;28;24732;-55
2021/08/05 09:48:36;;;;;;;9.60;8.90;;;;;;;;;;4986828;28;25289;-54
2021/08/05 09:51:05;;;;;;;10.13;9.43;;;;;;;;;;4987142;28;25163;-55
2021/08/05 09:53:30;;;;;;;9.73;9.03;;;;;;;;;;4986643;28;24990;-55
2021/08/05 09:56:08;;;;;;;9.40;8.80;;;;;;;;;;4987493;28;24389;-54
2021/08/05 09:58:34;;;;;;;6.55;6.15;;;;;;;;;;4986862;28;24475;-53
2021/08/05 10:01:05;;;;;;;6.80;6.30;;;;;;;;;;4987709;28;25093;-53
2021/08/05 10:03:30;;;;;;;6.90;6.40;;;;;;;;;;4987104;28;24420;-54
2021/08/05 10:06:00;;;;;;;5.80;5.40;;;;;;;;;;4987277;28;24935;-54
2021/08/05 10:08:32;;;;;;;5.50;5.10;;;;;;;;;;4987058;28;24495;-54
2021/08/05 10:10:57;;;;;;;5.60;5.20;;;;;;;;;;4986814;28;24386;-54
2021/08/05 10:13:35;;;;;;;5.05;4.75;;;;;;;;;;4989295;28;24400;-54
2021/08/05 10:16:02;;;;;;;6.10;5.70;;;;;;;;;;4991047;28;24823;-54
2021/08/05 10:18:28;;;;;;;5.20;4.90;;;;;;;;;;4990392;28;24487;-55
2021/08/05 10:20:54;;;;;;;5.35;4.95;;;;;;;;;;4990608;28;24476;-53
2021/08/05 10:23:20;;;;;;;5.70;5.30;;;;;;;;;;4990878;28;24408;-53
2021/08/05 10:25:45;;;;;;;7.50;6.90;;;;;;;;;;4990889;28;24432;-53
2021/08/05 10:28:13;;;;;;;6.60;6.10;;;;;;;;;;4990893;28;25203;-53
2021/08/05 10:30:38;;;;;;;6.35;5.75;;;;;;;;;;4990538;28;24385;-53
2021/08/05 10:33:04;;;;;;;6.00;5.60;;;;;;;;;;4990457;28;24409;-53
2021/08/05 10:35:29;;;;;;;6.70;6.30;;;;;;;;;;4990354;28;24500;-53
2021/08/05 10:37:54;;;;;;;6.67;6.27;;;;;;;;;;4990563;28;24452;-53
2021/08/05 10:40:20;;;;;;;6.40;6.00;;;;;;;;;;4990183;28;24495;-54
2021/08/05 10:42:46;;;;;;;7.00;6.50;;;;;;;;;;4990219;28;24396;-54
2021/08/05 10:45:12;;;;;;;8.07;7.47;;;;;;;;;;4990225;28;24409;-54
2021/08/05 10:47:38;;;;;;;7.40;6.90;;;;;;;;;;4990125;28;24475;-54
2021/08/05 10:50:11;;;;;;;6.90;6.30;;;;;;;;;;4989773;28;24954;-54
2021/08/05 10:52:37;;;;;;;7.00;6.50;;;;;;;;;;4989614;28;24413;-54
2021/08/05 10:55:06;;;;;;;7.40;6.80;;;;;;;;;;4989790;28;24492;-54
2021/08/05 10:57:32;;;;;;;6.15;5.75;;;;;;;;;;4989794;28;24492;-55
2021/08/05 11:00:08;;;;;;;6.30;5.90;;;;;;;;;;4990205;28;24500;-54
2021/08/05 11:02:52;;;;;;;6.00;5.60;;;;;;;;;;4989754;28;24519;-54
2021/08/05 11:05:23;;;;;;;5.93;5.60;;;;;;;;;;4990119;28;24437;-54
2021/08/05 11:07:52;;;;;;;6.00;5.60;;;;;;;;;;4990004;28;24421;-55
2021/08/05 11:10:19;;;;;;;6.00;5.60;;;;;;;;;;4989934;28;24421;-55
2021/08/05 11:12:49;;;;;;;6.38;5.97;;;;;;;;;;4989404;28;24394;-54
2021/08/05 11:15:25;;;;;;;5.90;5.60;;;;;;;;;;4989666;28;24393;-54
2021/08/05 11:18:06;;;;;;;6.22;5.75;;;;;;;;;;4990112;28;24396;-54
2021/08/05 11:20:31;;;;;;;6.00;5.50;;;;;;;;;;4989586;28;24444;-53
2021/08/05 11:22:56;;;;;;;5.90;5.40;;;;;;;;;;4989969;28;24475;-54
2021/08/05 11:25:21;;;;;;;5.45;5.15;;;;;;;;;;4988167;28;24965;-54
2021/08/05 11:28:05;;;;;;;5.50;5.20;;;;;;;;;;4982993;28;24433;-54
2021/08/05 11:30:41;;;;;;;5.72;5.32;;;;;;;;;;4968184;28;24449;-54
2021/08/05 11:33:06;;;;;;;5.50;5.10;;;;;;;;;;4970096;28;24406;-54
2021/08/05 11:35:31;;;;;;;6.03;5.63;;;;;;;;;;4969374;28;24456;-54
2021/08/05 11:38:06;;;;;;;5.50;5.10;;;;;;;;;;4969582;28;24404;-54
2021/08/05 11:40:40;;;;;;;5.30;5.00;;;;;;;;;;4969619;28;24430;-54
2021/08/05 11:43:18;;;;;;;6.20;5.80;;;;;;;;;;4977890;28;24758;-54
2021/08/05 11:46:02;;;;;;;5.80;5.40;;;;;;;;;;4989051;28;24408;-54
2021/08/05 11:48:35;;;;;;;5.90;5.50;;;;;;;;;;4988819;28;24409;-54
2021/08/05 11:51:02;;;;;;;6.80;6.30;;;;;;;;;;4989001;28;24792;-54
2021/08/05 11:53:27;;;;;;;6.13;5.78;;;;;;;;;;4988788;28;24437;-54
2021/08/05 11:55:52;;;;;;;5.40;5.10;;;;;;;;;;4989329;28;24399;-54
2021/08/05 11:58:17;;;;;;;5.07;4.75;;;;;;;;;;4989246;28;24934;-54
2021/08/05 12:00:42;;;;;;;4.75;4.50;;;;;;;;;;4988196;28;24405;-54
2021/08/05 12:03:09;;;;;;;4.70;4.43;;;;;;;;;;4988931;28;24432;-54
2021/08/05 12:05:42;;;;;;;5.00;4.70;;;;;;;;;;4989014;28;24443;-53
2021/08/05 12:08:07;;;;;;;5.00;4.70;;;;;;;;;;4988886;28;24963;-54
2021/08/05 12:10:34;;;;;;;4.90;4.60;;;;;;;;;;4988684;28;24413;-54
2021/08/05 12:13:03;;;;;;;5.35;5.05;;;;;;;;;;4988552;28;24464;-54
2021/08/05 12:15:41;;;;;;;5.60;5.30;;;;;;;;;;4988931;28;24439;-54
2021/08/05 12:18:11;;;;;;;5.50;5.20;;;;;;;;;;4988663;28;24431;-53
2021/08/05 12:20:39;;;;;;;5.40;5.00;;;;;;;;;;4988654;28;24393;-53
2021/08/05 12:23:07;;;;;;;5.37;5.07;;;;;;;;;;4988670;28;24385;-54
2021/08/05 12:25:34;;;;;;;4.97;4.67;;;;;;;;;;4988415;28;24930;-53
2021/08/05 12:28:04;;;;;;;6.97;6.57;;;;;;;;;;4988045;28;25037;-53
2021/08/05 12:30:33;;;;;;;5.18;4.88;;;;;;;;;;4988306;28;25007;-53
2021/08/05 12:33:00;;;;;;;6.10;5.70;;;;;;;;;;4988316;28;24390;-53
2021/08/05 12:35:25;;;;;;;6.75;6.25;;;;;;;;;;4987967;28;24397;-53
2021/08/05 12:38:20;;;;;;;6.57;6.17;;;;;;;;;;4988376;28;24807;-53
2021/08/05 12:40:45;;;;;;;5.22;4.90;;;;;;;;;;4971077;28;24482;-54
2021/08/05 12:43:12;;;;;;;5.60;5.20;;;;;;;;;;4988159;28;24405;-53
2021/08/05 12:45:39;;;;;;;6.07;5.67;;;;;;;;;;4988252;28;24416;-53
2021/08/05 12:48:04;;;;;;;7.53;7.03;;;;;;;;;;4988000;28;24966;-54
2021/08/05 12:50:30;;;;;;;8.37;7.87;;;;;;;;;;4987938;28;24389;-53
2021/08/05 12:52:56;;;;;;;8.30;7.70;;;;;;;;;;4987487;28;24476;-53
2021/08/05 12:55:21;;;;;;;8.50;7.90;;;;;;;;;;4988315;28;24847;-53
2021/08/05 12:57:51;;;;;;;7.77;7.27;;;;;;;;;;4987744;28;24408;-52
2021/08/05 13:00:23;;;;;;;7.20;6.70;;;;;;;;;;4987857;28;24400;-54
2021/08/05 13:02:59;;;;;;;7.00;6.50;;;;;;;;;;4987582;28;24428;-53
2021/08/05 13:05:25;;;;;;;7.35;6.85;;;;;;;;;;4987530;28;24401;-53
2021/08/05 13:07:52;;;;;;;7.43;6.93;;;;;;;;;;4987943;28;24868;-52
2021/08/05 13:10:19;;;;;;;8.10;7.50;;;;;;;;;;4987445;28;24973;-52
2021/08/05 13:12:47;;;;;;;7.20;6.80;;;;;;;;;;4987506;28;24467;-52
2021/08/05 13:15:29;;;;;;;7.18;6.68;;;;;;;;;;4987414;28;24532;-53
2021/08/05 13:17:55;;;;;;;7.50;6.90;;;;;;;;;;4987529;28;24464;-53
2021/08/05 13:20:20;;;;;;;6.50;6.00;;;;;;;;;;4987908;28;24421;-53
2021/08/05 13:22:48;;;;;;;6.40;5.90;;;;;;;;;;4987444;28;24408;-53
2021/08/05 13:25:14;;;;;;;6.18;5.75;;;;;;;;;;4987823;28;24396;-53
2021/08/05 13:27:40;;;;;;;7.00;6.60;;;;;;;;;;4985476;28;24421;-54
2021/08/05 13:30:11;;;;;;;7.30;6.80;;;;;;;;;;4986439;28;24759;-53
2021/08/05 13:32:41;;;;;;;6.53;6.13;;;;;;;;;;4985746;28;24996;-53
2021/08/05 13:35:07;;;;;;;6.93;6.43;;;;;;;;;;4987098;28;24919;-53
2021/08/05 13:37:37;;;;;;;6.45;6.05;;;;;;;;;;4987388;28;24472;-53
2021/08/05 13:40:21;;;;;;;5.95;5.55;;;;;;;;;;4987309;28;24783;-53
2021/08/05 13:42:46;;;;;;;5.80;5.40;;;;;;;;;;4986856;28;25138;-54
2021/08/05 13:45:11;;;;;;;6.13;5.73;;;;;;;;;;4987060;28;24536;-53
2021/08/05 13:47:37;;;;;;;5.63;5.22;;;;;;;;;;4988586;28;24432;-53
2021/08/05 13:50:21;;;;;;;5.25;4.85;;;;;;;;;;4991351;28;24390;-53
2021/08/05 13:52:46;;;;;;;5.88;5.47;;;;;;;;;;4990459;28;24955;-53
2021/08/05 13:55:12;;;;;;;6.30;5.80;;;;;;;;;;4991307;28;24397;-53
2021/08/05 13:57:37;;;;;;;7.37;6.87;;;;;;;;;;4991202;28;24413;-53
2021/08/05 14:00:06;;;;;;;6.70;6.20;;;;;;;;;;4991471;28;25286;-53
2021/08/05 14:02:32;;;;;;;5.10;4.80;;;;;;;;;;4991199;28;24415;-54
2021/08/05 14:04:58;;;;;;;6.00;5.60;;;;;;;;;;4991209;28;24799;-53
2021/08/05 14:07:23;;;;;;;5.60;5.27;;;;;;;;;;4991339;28;24944;-54
2021/08/05 14:09:48;;;;;;;4.95;4.65;;;;;;;;;;4991045;28;24401;-53
2021/08/05 14:12:14;;;;;;;5.20;4.90;;;;;;;;;;4990857;28;24496;-52
2021/08/05 14:14:39;;;;;;;5.00;4.70;;;;;;;;;;4990892;28;24385;-53
2021/08/05 14:17:05;;;;;;;4.70;4.40;;;;;;;;;;4991071;28;24836;-53
2021/08/05 14:19:30;;;;;;;5.50;5.10;;;;;;;;;;4990831;28;24401;-53
2021/08/05 14:21:55;;;;;;;5.05;4.68;;;;;;;;;;4990903;28;24416;-53
2021/08/05 14:24:20;;;;;;;6.40;5.90;;;;;;;;;;4990535;28;24396;-53
2021/08/05 14:26:46;;;;;;;6.10;5.70;;;;;;;;;;4990702;28;24969;-52
2021/08/05 14:29:11;;;;;;;5.40;5.10;;;;;;;;;;4990529;28;24760;-53
2021/08/05 14:31:36;;;;;;;6.20;5.80;;;;;;;;;;4990845;28;24385;-53
2021/08/05 14:34:02;;;;;;;5.10;4.70;;;;;;;;;;4990227;28;24454;-52
2021/08/05 14:36:27;;;;;;;3.90;3.70;;;;;;;;;;4990722;28;24409;-53
2021/08/05 14:38:52;;;;;;;4.00;3.80;;;;;;;;;;4990183;28;24397;-53